createdAt,value
2023-02-26T00:00:30.091Z,14.97
2023-02-26T00:01:02.182Z,13.67
2023-02-26T00:01:34.314Z,13.50
2023-02-26T00:02:06.162Z,14.30
2023-02-26T00:02:38.733Z,13.90
2023-02-26T00:03:10.499Z,13.87
2023-02-26T00:03:42.425Z,14.47
2023-02-26T00:04:14.302Z,14.53
2023-02-26T00:04:46.038Z,14.40
2023-02-26T00:05:17.900Z,16.03
2023-02-26T00:05:50.799Z,16.80
2023-02-26T00:06:24.720Z,16.43
2023-02-26T00:06:58.209Z,18.47
2023-02-26T00:07:31.428Z,17.93
2023-02-26T00:08:06.074Z,16.47
2023-02-26T00:08:37.912Z,14.50
2023-02-26T00:09:09.735Z,15.27
2023-02-26T00:09:41.832Z,16.80
2023-02-26T00:10:16.592Z,16.33
2023-02-26T00:10:48.817Z,18.20
2023-02-26T00:11:20.868Z,17.10
2023-02-26T00:11:52.791Z,16.73
2023-02-26T00:12:25.049Z,15.87
2023-02-26T00:12:57.138Z,14.30
2023-02-26T00:13:30.009Z,15.67
2023-02-26T00:14:02.162Z,14.50
2023-02-26T00:14:34.621Z,15.47
2023-02-26T00:15:08.324Z,14.20
2023-02-26T00:15:40.262Z,14.13
2023-02-26T00:16:31.617Z,16.13
2023-02-26T00:17:18.603Z,14.70
2023-02-26T00:18:07.410Z,12.47
2023-02-26T00:18:39.558Z,12.90
2023-02-26T00:19:12.392Z,12.77
2023-02-26T00:19:44.793Z,9.87
2023-02-26T00:20:17.165Z,10.83
2023-02-26T00:20:49.195Z,12.27
2023-02-26T00:21:23.473Z,12.10
2023-02-26T00:21:55.635Z,11.57
2023-02-26T00:22:27.779Z,10.13
2023-02-26T00:22:59.905Z,8.93
2023-02-26T00:23:31.955Z,10.10
2023-02-26T00:24:04.304Z,10.87
2023-02-26T00:24:36.099Z,11.53
2023-02-26T00:25:08.547Z,11.07
2023-02-26T00:25:41.395Z,10.90
2023-02-26T00:26:13.398Z,10.43
2023-02-26T00:26:45.185Z,11.83
2023-02-26T00:27:16.951Z,11.63
2023-02-26T00:27:48.965Z,11.23
2023-02-26T00:28:21.070Z,10.87
2023-02-26T00:28:53.685Z,10.47
2023-02-26T00:29:25.759Z,10.20
2023-02-26T00:29:57.761Z,10.60
2023-02-26T00:30:30.035Z,10.97
2023-02-26T00:31:02.267Z,11.90
2023-02-26T00:31:34.578Z,11.43
2023-02-26T00:32:06.738Z,11.47
2023-02-26T00:32:39.718Z,11.27
2023-02-26T00:33:11.777Z,11.20
2023-02-26T00:33:44.687Z,11.00
2023-02-26T00:34:16.688Z,10.77
2023-02-26T00:34:49.414Z,10.20
2023-02-26T00:35:21.599Z,11.40
2023-02-26T00:36:03.686Z,14.17
2023-02-26T00:36:47.221Z,18.73
2023-02-26T00:37:18.945Z,19.43
2023-02-26T00:37:56.489Z,24.07
2023-02-26T00:38:34.884Z,27.93
2023-02-26T00:39:25.577Z,40.37
2023-02-26T00:40:11.178Z,21.67
2023-02-26T00:40:50.043Z,19.47
2023-02-26T00:41:22.207Z,24.07
2023-02-26T00:41:54.360Z,25.00
2023-02-26T00:42:26.563Z,31.10
2023-02-26T00:42:58.638Z,22.70
2023-02-26T00:43:30.665Z,22.90
2023-02-26T00:44:02.979Z,19.67
2023-02-26T00:44:35.298Z,35.00
2023-02-26T00:45:09.185Z,40.73
2023-02-26T00:45:49.811Z,45.10
2023-02-26T00:46:39.757Z,58.97
2023-02-26T00:47:37.243Z,61.27
2023-02-26T00:48:34.193Z,97.87
2023-02-26T00:49:14.981Z,89.60
2023-02-26T00:50:07.849Z,48.43
2023-02-26T00:50:46.891Z,35.83
2023-02-26T00:51:28.789Z,29.23
2023-02-26T00:52:06.473Z,27.90
2023-02-26T00:52:53.572Z,26.30
2023-02-26T00:53:34.355Z,47.53
2023-02-26T00:54:23.069Z,38.47
2023-02-26T00:54:55.107Z,40.97
2023-02-26T00:55:28.489Z,33.60
2023-02-26T00:56:00.913Z,39.93
2023-02-26T00:56:32.648Z,32.03
2023-02-26T00:57:06.020Z,20.33
2023-02-26T00:57:37.984Z,19.07
2023-02-26T00:58:09.922Z,19.07
2023-02-26T00:58:41.728Z,16.30
2023-02-26T00:59:13.635Z,16.57
2023-02-26T00:59:45.381Z,18.77
2023-02-26T01:00:17.824Z,20.13
2023-02-26T01:00:49.597Z,21.17
2023-02-26T01:01:21.366Z,21.27
2023-02-26T01:01:53.646Z,18.57
2023-02-26T01:02:25.684Z,21.63
2023-02-26T01:02:57.895Z,20.30
2023-02-26T01:03:32.146Z,37.83
2023-02-26T01:04:04.703Z,26.87
2023-02-26T01:04:37.194Z,23.77
2023-02-26T01:05:10.745Z,18.90
2023-02-26T01:05:43.013Z,19.77
2023-02-26T01:06:20.429Z,27.30
2023-02-26T01:06:55.626Z,35.20
2023-02-26T01:07:30.019Z,35.50
2023-02-26T01:08:04.268Z,50.07
2023-02-26T01:08:47.088Z,32.10
2023-02-26T01:09:26.863Z,56.80
2023-02-26T01:09:58.901Z,58.97
2023-02-26T01:10:31.010Z,60.77
2023-02-26T01:11:03.271Z,43.10
2023-02-26T01:11:36.518Z,25.07
2023-02-26T01:12:13.025Z,26.50
2023-02-26T01:12:45.058Z,42.40
2023-02-26T01:13:17.287Z,58.40
2023-02-26T01:13:49.463Z,45.60
2023-02-26T01:14:22.025Z,49.40
2023-02-26T01:14:54.257Z,45.00
2023-02-26T01:15:26.808Z,32.43
2023-02-26T01:16:14.080Z,58.73
2023-02-26T01:17:10.890Z,38.40
2023-02-26T01:18:11.941Z,35.57
2023-02-26T01:19:00.355Z,30.23
2023-02-26T01:19:47.915Z,52.80
2023-02-26T01:20:28.580Z,32.13
2023-02-26T01:21:05.690Z,40.17
2023-02-26T01:21:46.488Z,43.33
2023-02-26T01:22:46.910Z,27.60
2023-02-26T01:23:25.331Z,22.93
2023-02-26T01:23:57.269Z,46.97
2023-02-26T01:24:31.583Z,71.33
2023-02-26T01:25:13.619Z,71.03
2023-02-26T01:26:06.381Z,138.40
2023-02-26T01:26:38.276Z,137.23
2023-02-26T01:27:10.234Z,116.33
2023-02-26T01:27:42.148Z,111.00
2023-02-26T01:28:14.334Z,95.77
2023-02-26T01:28:46.847Z,82.90
2023-02-26T01:29:19.529Z,57.83
2023-02-26T01:29:51.529Z,51.13
2023-02-26T01:30:24.558Z,30.70
2023-02-26T01:31:02.604Z,30.07
2023-02-26T01:31:39.108Z,25.40
2023-02-26T01:32:27.834Z,14.37
2023-02-26T01:33:03.101Z,14.37
2023-02-26T01:33:44.145Z,17.20
2023-02-26T01:34:23.093Z,17.13
2023-02-26T01:35:05.083Z,52.67
2023-02-26T01:36:03.046Z,68.63
2023-02-26T01:36:44.198Z,32.77
2023-02-26T01:37:25.217Z,30.17
2023-02-26T01:38:16.022Z,59.90
2023-02-26T01:39:14.395Z,43.47
2023-02-26T01:40:01.294Z,35.30
2023-02-26T01:40:44.840Z,52.43
2023-02-26T01:41:22.630Z,29.63
2023-02-26T01:42:23.606Z,31.60
2023-02-26T01:43:03.650Z,12.73
2023-02-26T01:44:05.020Z,29.07
2023-02-26T01:45:00.374Z,63.43
2023-02-26T01:45:39.549Z,33.63
2023-02-26T01:46:23.024Z,18.40
2023-02-26T01:47:01.832Z,14.27
2023-02-26T01:47:48.423Z,14.97
2023-02-26T01:48:37.577Z,14.10
2023-02-26T01:49:15.183Z,10.50
2023-02-26T01:49:47.439Z,10.33
2023-02-26T01:50:22.227Z,9.57
2023-02-26T01:50:53.949Z,9.13
2023-02-26T01:51:51.838Z,9.80
2023-02-26T01:52:49.528Z,8.73
2023-02-26T01:53:26.428Z,8.37
2023-02-26T01:53:58.227Z,8.10
2023-02-26T01:54:39.254Z,8.83
2023-02-26T01:55:11.278Z,8.17
2023-02-26T01:55:47.801Z,7.83
2023-02-26T01:56:20.049Z,8.70
2023-02-26T01:57:11.016Z,8.20
2023-02-26T01:57:43.302Z,9.53
2023-02-26T01:58:15.482Z,9.47
2023-02-26T01:58:50.310Z,8.83
2023-02-26T01:59:24.827Z,9.13
2023-02-26T01:59:57.113Z,9.17
2023-02-26T02:00:31.426Z,8.53
2023-02-26T02:01:04.198Z,8.70
2023-02-26T02:01:40.172Z,10.20
2023-02-26T02:02:16.939Z,10.33
2023-02-26T02:02:50.438Z,9.07
2023-02-26T02:03:25.937Z,8.67
2023-02-26T02:03:58.159Z,8.87
2023-02-26T02:04:32.786Z,10.07
2023-02-26T02:05:12.295Z,10.57
2023-02-26T02:05:47.789Z,9.70
2023-02-26T02:06:26.793Z,9.97
2023-02-26T02:06:58.975Z,17.63
2023-02-26T02:07:31.501Z,33.93
2023-02-26T02:08:03.410Z,32.23
2023-02-26T02:08:36.343Z,25.27
2023-02-26T02:09:09.706Z,18.50
2023-02-26T02:09:42.912Z,17.53
2023-02-26T02:10:14.782Z,19.33
2023-02-26T02:10:48.897Z,14.33
2023-02-26T02:11:21.070Z,12.50
2023-02-26T02:11:58.222Z,9.77
2023-02-26T02:12:41.935Z,8.97
2023-02-26T02:13:25.307Z,12.27
2023-02-26T02:14:18.825Z,11.80
2023-02-26T02:15:02.869Z,11.47
2023-02-26T02:16:27.113Z,16.47
2023-02-26T02:17:20.187Z,11.20
2023-02-26T02:18:09.020Z,10.40
2023-02-26T02:18:56.982Z,14.50
2023-02-26T02:20:06.749Z,15.63
2023-02-26T02:21:15.291Z,21.60
2023-02-26T02:22:04.877Z,49.33
2023-02-26T02:23:12.439Z,33.50
2023-02-26T02:23:56.193Z,25.77
2023-02-26T02:25:09.080Z,20.37
2023-02-26T02:25:52.895Z,23.27
2023-02-26T02:26:33.636Z,26.50
2023-02-26T02:27:20.849Z,39.67
2023-02-26T02:28:14.412Z,39.63
2023-02-26T02:29:10.643Z,18.70
2023-02-26T02:30:01.086Z,16.13
2023-02-26T02:30:58.034Z,16.60
2023-02-26T02:31:58.406Z,45.23
2023-02-26T02:32:44.405Z,20.03
2023-02-26T02:33:23.930Z,14.37
2023-02-26T02:34:04.385Z,13.33
2023-02-26T02:34:42.393Z,14.00
2023-02-26T02:35:34.654Z,14.63
2023-02-26T02:36:34.535Z,14.30
2023-02-26T02:37:32.564Z,13.17
2023-02-26T02:38:19.594Z,12.00
2023-02-26T02:39:08.683Z,11.70
2023-02-26T02:39:53.538Z,13.10
2023-02-26T02:40:31.109Z,12.97
2023-02-26T02:41:18.382Z,12.73
2023-02-26T02:41:59.380Z,11.40
2023-02-26T02:42:38.003Z,12.67
2023-02-26T02:43:15.274Z,12.30
2023-02-26T02:43:49.408Z,11.03
2023-02-26T02:44:26.309Z,11.03
2023-02-26T02:45:19.271Z,11.47
2023-02-26T02:45:57.142Z,11.10
2023-02-26T02:46:34.141Z,11.87
2023-02-26T02:47:09.903Z,11.60
2023-02-26T02:47:45.074Z,10.67
2023-02-26T02:48:25.445Z,11.17
2023-02-26T02:49:07.269Z,13.00
2023-02-26T02:49:51.953Z,12.53
2023-02-26T02:50:35.082Z,11.93
2023-02-26T02:51:17.889Z,12.27
2023-02-26T02:52:14.057Z,11.33
2023-02-26T02:52:56.780Z,12.83
2023-02-26T02:53:36.614Z,11.77
2023-02-26T02:54:11.197Z,11.17
2023-02-26T02:54:58.879Z,11.23
2023-02-26T02:55:38.697Z,10.80
2023-02-26T02:56:21.651Z,9.50
2023-02-26T02:57:02.612Z,8.83
2023-02-26T02:57:40.810Z,8.97
2023-02-26T02:58:19.134Z,7.87
2023-02-26T02:59:12.015Z,6.07
2023-02-26T02:59:51.571Z,6.17
2023-02-26T03:00:25.797Z,5.83
2023-02-26T03:01:04.465Z,5.20
2023-02-26T03:01:38.140Z,4.50
2023-02-26T03:02:33.495Z,3.80
2023-02-26T03:03:24.707Z,3.47
2023-02-26T03:04:09.927Z,3.37
2023-02-26T03:04:42.783Z,3.57
2023-02-26T03:05:15.327Z,3.17
2023-02-26T03:05:47.578Z,3.30
2023-02-26T03:06:19.596Z,2.93
2023-02-26T03:06:51.418Z,2.40
2023-02-26T03:07:23.778Z,1.87
2023-02-26T03:08:24.907Z,2.00
2023-02-26T03:08:56.783Z,1.87
2023-02-26T03:09:28.670Z,1.80
2023-02-26T03:10:00.609Z,1.73
2023-02-26T03:10:33.672Z,1.57
2023-02-26T03:11:05.892Z,1.40
2023-02-26T03:11:38.251Z,1.13
2023-02-26T03:12:10.056Z,1.03
2023-02-26T03:12:41.845Z,1.10
2023-02-26T03:13:31.911Z,0.83
2023-02-26T03:14:05.720Z,0.93
2023-02-26T03:14:38.224Z,0.97
2023-02-26T03:15:10.850Z,1.00
2023-02-26T03:16:20.059Z,1.00
2023-02-26T03:17:10.614Z,1.00
2023-02-26T03:17:47.843Z,1.03
2023-02-26T03:18:42.238Z,0.70
2023-02-26T03:19:49.584Z,0.63
2023-02-26T03:20:30.027Z,0.80
2023-02-26T03:21:14.822Z,0.63
2023-02-26T03:22:00.655Z,0.80
2023-02-26T03:22:47.218Z,0.60
2023-02-26T03:23:31.908Z,0.83
2023-02-26T03:24:31.395Z,0.90
2023-02-26T03:25:25.092Z,0.80
2023-02-26T03:26:34.569Z,0.83
2023-02-26T03:27:21.490Z,0.93
2023-02-26T03:28:19.076Z,0.97
2023-02-26T03:29:18.148Z,0.97
2023-02-26T03:29:53.323Z,1.17
2023-02-26T03:30:38.407Z,1.27
2023-02-26T03:31:23.677Z,1.53
2023-02-26T03:32:15.149Z,1.40
2023-02-26T03:33:02.117Z,1.57
2023-02-26T03:34:01.594Z,1.70
2023-02-26T03:34:42.835Z,1.87
2023-02-26T03:35:20.215Z,1.83
2023-02-26T03:36:12.480Z,2.37
2023-02-26T03:36:53.712Z,2.40
2023-02-26T03:37:42.825Z,2.40
2023-02-26T03:38:47.614Z,2.63
2023-02-26T03:39:32.859Z,3.00
2023-02-26T03:40:13.085Z,2.60
2023-02-26T03:40:56.699Z,2.60
2023-02-26T03:42:08.716Z,2.87
2023-02-26T03:42:46.882Z,2.67
2023-02-26T03:43:29.524Z,2.33
2023-02-26T03:44:13.477Z,2.47
2023-02-26T03:45:06.723Z,2.73
2023-02-26T03:45:43.064Z,2.73
2023-02-26T03:46:21.790Z,2.50
2023-02-26T03:47:00.241Z,2.50
2023-02-26T03:47:35.188Z,2.37
2023-02-26T03:48:11.761Z,2.70
2023-02-26T03:48:45.517Z,2.67
2023-02-26T03:49:33.253Z,2.33
2023-02-26T03:50:19.113Z,2.20
2023-02-26T03:50:55.330Z,2.47
2023-02-26T03:51:29.122Z,2.53
2023-02-26T03:52:03.279Z,2.37
2023-02-26T03:52:40.302Z,2.37
2023-02-26T03:53:19.957Z,1.97
2023-02-26T03:54:05.508Z,1.80
2023-02-26T03:54:57.921Z,1.60
2023-02-26T03:56:13.557Z,2.00
2023-02-26T03:56:48.332Z,1.67
2023-02-26T03:57:20.207Z,1.83
2023-02-26T03:57:52.341Z,1.83
2023-02-26T03:58:24.467Z,1.87
2023-02-26T03:58:56.759Z,1.90
2023-02-26T03:59:28.964Z,1.63
2023-02-26T04:00:01.107Z,1.70
2023-02-26T04:00:38.169Z,1.63
2023-02-26T04:01:18.754Z,1.90
2023-02-26T04:02:04.503Z,1.87
2023-02-26T04:03:00.462Z,1.80
2023-02-26T04:04:00.786Z,2.27
2023-02-26T04:04:50.962Z,1.90
2023-02-26T04:05:32.445Z,2.50
2023-02-26T04:06:05.580Z,5.23
2023-02-26T04:06:37.666Z,9.13
2023-02-26T04:07:14.844Z,12.00
2023-02-26T04:07:48.700Z,25.70
2023-02-26T04:08:24.576Z,26.80
2023-02-26T04:08:57.170Z,21.83
2023-02-26T04:09:29.274Z,18.40
2023-02-26T04:10:01.202Z,11.30
2023-02-26T04:10:42.925Z,12.63
2023-02-26T04:11:20.778Z,11.37
2023-02-26T04:11:54.940Z,12.50
2023-02-26T04:12:29.244Z,13.53
2023-02-26T04:13:02.877Z,15.20
2023-02-26T04:13:35.399Z,17.70
2023-02-26T04:14:07.174Z,19.33
2023-02-26T04:14:39.066Z,17.63
2023-02-26T04:15:12.095Z,16.50
2023-02-26T04:15:43.939Z,17.37
2023-02-26T04:16:16.018Z,17.47
2023-02-26T04:16:48.431Z,17.33
2023-02-26T04:17:20.553Z,19.90
2023-02-26T04:17:52.268Z,21.60
2023-02-26T04:18:24.192Z,24.20
2023-02-26T04:18:56.021Z,25.77
2023-02-26T04:19:27.804Z,22.37
2023-02-26T04:19:59.578Z,19.43
2023-02-26T04:20:31.550Z,20.20
2023-02-26T04:21:03.585Z,21.47
2023-02-26T04:21:35.376Z,23.60
2023-02-26T04:22:07.309Z,24.43
2023-02-26T04:22:39.330Z,23.70
2023-02-26T04:23:11.093Z,18.73
2023-02-26T04:23:42.959Z,13.13
2023-02-26T04:24:14.774Z,11.70
2023-02-26T04:24:46.556Z,9.43
2023-02-26T04:25:18.467Z,8.97
2023-02-26T04:25:50.431Z,9.33
2023-02-26T04:26:22.487Z,9.10
2023-02-26T04:26:54.409Z,7.90
2023-02-26T04:27:26.226Z,6.13
2023-02-26T04:27:58.040Z,5.60
2023-02-26T04:28:30.293Z,5.80
2023-02-26T04:29:02.051Z,5.10
2023-02-26T04:29:33.855Z,4.97
2023-02-26T04:30:06.373Z,5.90
2023-02-26T04:30:38.274Z,5.53
2023-02-26T04:31:12.945Z,5.63
2023-02-26T04:31:44.923Z,4.83
2023-02-26T04:32:16.762Z,4.13
2023-02-26T04:32:49.610Z,4.13
2023-02-26T04:33:21.690Z,4.50
2023-02-26T04:33:53.405Z,3.87
2023-02-26T04:34:25.281Z,3.60
2023-02-26T04:34:57.079Z,3.17
2023-02-26T04:35:28.889Z,3.20
2023-02-26T04:36:01.246Z,3.00
2023-02-26T04:36:33.402Z,3.37
2023-02-26T04:37:05.179Z,3.27
2023-02-26T04:37:36.932Z,3.37
2023-02-26T04:38:08.822Z,3.30
2023-02-26T04:38:40.721Z,2.97
2023-02-26T04:39:12.571Z,2.77
2023-02-26T04:39:44.305Z,2.23
2023-02-26T04:40:16.238Z,2.37
2023-02-26T04:40:49.694Z,2.50
2023-02-26T04:41:22.659Z,3.27
2023-02-26T04:41:54.401Z,3.67
2023-02-26T04:42:26.252Z,4.23
2023-02-26T04:42:58.046Z,4.50
2023-02-26T04:43:29.815Z,3.83
2023-02-26T04:44:01.594Z,2.97
2023-02-26T04:44:33.456Z,2.73
2023-02-26T04:45:05.661Z,2.70
2023-02-26T04:45:37.390Z,3.10
2023-02-26T04:46:09.224Z,3.00
2023-02-26T04:46:41.081Z,2.40
2023-02-26T04:47:12.885Z,2.53
2023-02-26T04:47:44.820Z,2.70
2023-02-26T04:48:17.592Z,2.63
2023-02-26T04:48:49.382Z,2.20
2023-02-26T04:49:21.132Z,2.10
2023-02-26T04:49:52.902Z,2.47
2023-02-26T04:50:24.637Z,2.27
2023-02-26T04:50:56.423Z,1.90
2023-02-26T04:51:28.318Z,1.87
2023-02-26T04:52:00.334Z,1.87
2023-02-26T04:52:32.298Z,2.07
2023-02-26T04:53:04.244Z,2.00
2023-02-26T04:53:36.058Z,2.00
2023-02-26T04:54:07.873Z,2.03
2023-02-26T04:54:40.871Z,2.13
2023-02-26T04:55:12.787Z,1.77
2023-02-26T04:55:44.563Z,1.50
2023-02-26T04:56:16.273Z,1.73
2023-02-26T04:56:48.084Z,1.97
2023-02-26T04:57:19.808Z,2.27
2023-02-26T04:57:52.212Z,1.93
2023-02-26T04:58:24.100Z,2.10
2023-02-26T04:58:55.852Z,1.73
2023-02-26T04:59:27.713Z,2.03
2023-02-26T04:59:59.534Z,2.30
2023-02-26T05:00:31.452Z,2.37
2023-02-26T05:01:03.313Z,2.50
2023-02-26T05:01:35.153Z,2.47
2023-02-26T05:02:07.250Z,2.77
2023-02-26T05:02:39.047Z,3.30
2023-02-26T05:03:11.167Z,3.07
2023-02-26T05:03:42.911Z,3.17
2023-02-26T05:04:14.798Z,3.93
2023-02-26T05:04:46.602Z,4.20
2023-02-26T05:05:18.549Z,4.93
2023-02-26T05:05:50.433Z,4.47
2023-02-26T05:06:22.689Z,3.87
2023-02-26T05:06:54.691Z,3.13
2023-02-26T05:07:26.661Z,3.60
2023-02-26T05:07:58.789Z,3.67
2023-02-26T05:08:30.693Z,4.37
2023-02-26T05:09:02.487Z,4.93
2023-02-26T05:09:34.339Z,5.03
2023-02-26T05:10:07.252Z,4.13
2023-02-26T05:10:39.155Z,4.00
2023-02-26T05:11:11.504Z,4.87
2023-02-26T05:11:43.270Z,4.40
2023-02-26T05:12:15.025Z,4.23
2023-02-26T05:12:47.003Z,3.87
2023-02-26T05:13:19.916Z,3.20
2023-02-26T05:13:51.817Z,3.23
2023-02-26T05:14:23.562Z,3.63
2023-02-26T05:14:55.444Z,3.87
2023-02-26T05:15:27.416Z,3.97
2023-02-26T05:15:59.201Z,4.37
2023-02-26T05:16:31.041Z,6.50
2023-02-26T05:17:02.794Z,8.13
2023-02-26T05:17:35.859Z,8.23
2023-02-26T05:18:07.725Z,9.27
2023-02-26T05:18:39.592Z,9.20
2023-02-26T05:19:11.390Z,8.50
2023-02-26T05:19:43.204Z,9.80
2023-02-26T05:20:15.597Z,8.80
2023-02-26T05:20:52.944Z,8.10
2023-02-26T05:21:26.300Z,7.20
2023-02-26T05:21:58.221Z,9.00
2023-02-26T05:22:29.968Z,9.30
2023-02-26T05:23:02.026Z,8.90
2023-02-26T05:23:34.202Z,8.47
2023-02-26T05:24:06.221Z,8.07
2023-02-26T05:24:38.066Z,8.73
2023-02-26T05:25:12.523Z,9.53
2023-02-26T05:25:44.308Z,7.50
2023-02-26T05:26:16.076Z,6.23
2023-02-26T05:26:47.852Z,6.30
2023-02-26T05:27:19.687Z,7.33
2023-02-26T05:27:51.709Z,6.93
2023-02-26T05:28:25.175Z,6.20
2023-02-26T05:28:56.997Z,6.73
2023-02-26T05:29:28.943Z,7.33
2023-02-26T05:30:00.820Z,5.63
2023-02-26T05:30:32.742Z,5.40
2023-02-26T05:31:04.912Z,5.83
2023-02-26T05:31:36.732Z,5.97
2023-02-26T05:32:08.771Z,8.07
2023-02-26T05:32:41.697Z,8.53
2023-02-26T05:33:13.482Z,8.50
2023-02-26T05:33:45.399Z,8.70
2023-02-26T05:34:17.148Z,9.10
2023-02-26T05:34:50.021Z,8.60
2023-02-26T05:35:21.938Z,8.60
2023-02-26T05:35:54.232Z,8.93
2023-02-26T05:36:26.417Z,8.07
2023-02-26T05:36:58.660Z,8.20
2023-02-26T05:37:30.530Z,9.13
2023-02-26T05:38:02.409Z,9.03
2023-02-26T05:38:35.049Z,9.03
2023-02-26T05:39:07.120Z,8.97
2023-02-26T05:39:41.125Z,7.97
2023-02-26T05:40:13.265Z,7.47
2023-02-26T05:40:45.072Z,8.27
2023-02-26T05:41:16.870Z,8.93
2023-02-26T05:41:48.917Z,8.37
2023-02-26T05:42:20.714Z,8.60
2023-02-26T05:42:53.951Z,8.40
2023-02-26T05:43:26.418Z,8.30
2023-02-26T05:43:58.365Z,9.03
2023-02-26T05:44:30.278Z,9.27
2023-02-26T05:45:02.131Z,8.60
2023-02-26T05:45:35.180Z,9.00
2023-02-26T05:46:07.011Z,8.30
2023-02-26T05:46:38.917Z,8.90
2023-02-26T05:47:10.707Z,8.37
2023-02-26T05:47:42.593Z,8.43
2023-02-26T05:48:14.540Z,7.07
2023-02-26T05:48:46.372Z,6.67
2023-02-26T05:49:18.143Z,6.83
2023-02-26T05:49:50.280Z,6.73
2023-02-26T05:50:22.295Z,6.10
2023-02-26T05:50:54.124Z,6.17
2023-02-26T05:51:25.993Z,5.93
2023-02-26T05:51:57.745Z,6.13
2023-02-26T05:52:29.516Z,6.00
2023-02-26T05:53:01.552Z,5.93
2023-02-26T05:53:33.328Z,5.47
2023-02-26T05:54:05.687Z,5.73
2023-02-26T05:54:37.532Z,6.07
2023-02-26T05:55:09.987Z,6.73
2023-02-26T05:55:41.734Z,6.27
2023-02-26T05:56:13.492Z,6.33
2023-02-26T05:56:45.347Z,5.43
2023-02-26T05:57:17.173Z,5.77
2023-02-26T05:57:50.084Z,5.97
2023-02-26T05:58:21.995Z,6.00
2023-02-26T05:58:53.732Z,6.37
2023-02-26T05:59:25.594Z,5.33
2023-02-26T05:59:57.425Z,4.63
2023-02-26T06:00:29.590Z,6.20
2023-02-26T06:01:01.537Z,5.30
2023-02-26T06:01:34.228Z,4.17
2023-02-26T06:02:06.106Z,4.50
2023-02-26T06:02:38.210Z,4.93
2023-02-26T06:03:10.111Z,5.20
2023-02-26T06:03:45.280Z,4.50
2023-02-26T06:04:17.415Z,4.37
2023-02-26T06:04:49.515Z,4.27
2023-02-26T06:05:21.318Z,4.83
2023-02-26T06:05:53.105Z,5.00
2023-02-26T06:06:27.137Z,4.93
2023-02-26T06:06:59.115Z,6.13
2023-02-26T06:07:30.961Z,6.37
2023-02-26T06:08:03.969Z,6.60
2023-02-26T06:08:35.990Z,6.70
2023-02-26T06:09:08.980Z,5.97
2023-02-26T06:09:40.756Z,5.33
2023-02-26T06:10:12.839Z,6.53
2023-02-26T06:10:45.053Z,7.37
2023-02-26T06:11:16.862Z,7.67
2023-02-26T06:11:48.886Z,6.93
2023-02-26T06:12:20.671Z,7.27
2023-02-26T06:12:52.500Z,7.03
2023-02-26T06:13:24.356Z,7.50
2023-02-26T06:13:56.712Z,8.07
2023-02-26T06:14:28.532Z,7.73
2023-02-26T06:15:00.433Z,7.83
2023-02-26T06:15:32.746Z,8.20
2023-02-26T06:16:05.235Z,6.87
2023-02-26T06:16:37.147Z,6.70
2023-02-26T06:17:09.007Z,7.57
2023-02-26T06:17:41.052Z,7.73
2023-02-26T06:18:13.327Z,7.73
2023-02-26T06:18:45.132Z,8.80
2023-02-26T06:19:16.927Z,7.83
2023-02-26T06:19:48.746Z,7.67
2023-02-26T06:20:20.766Z,7.17
2023-02-26T06:20:52.978Z,6.63
2023-02-26T06:21:24.922Z,6.90
2023-02-26T06:21:56.663Z,8.07
2023-02-26T06:22:28.476Z,9.70
2023-02-26T06:23:00.312Z,10.33
2023-02-26T06:23:32.303Z,11.53
2023-02-26T06:24:04.326Z,10.60
2023-02-26T06:24:36.245Z,10.60
2023-02-26T06:25:09.092Z,10.10
2023-02-26T06:25:42.659Z,9.73
2023-02-26T06:26:14.385Z,10.93
2023-02-26T06:26:46.464Z,11.37
2023-02-26T06:27:18.505Z,10.77
2023-02-26T06:27:50.277Z,10.97
2023-02-26T06:28:24.611Z,9.30
2023-02-26T06:28:56.471Z,8.10
2023-02-26T06:29:28.244Z,8.13
2023-02-26T06:30:00.038Z,7.20
2023-02-26T06:30:31.974Z,6.97
2023-02-26T06:31:05.241Z,8.07
2023-02-26T06:31:37.207Z,7.43
2023-02-26T06:32:09.329Z,7.20
2023-02-26T06:32:41.169Z,7.27
2023-02-26T06:33:13.459Z,7.73
2023-02-26T06:33:45.235Z,7.53
2023-02-26T06:34:17.248Z,7.83
2023-02-26T06:34:49.224Z,8.10
2023-02-26T06:35:21.022Z,8.33
2023-02-26T06:35:53.260Z,6.93
2023-02-26T06:36:25.371Z,6.57
2023-02-26T06:36:57.413Z,6.63
2023-02-26T06:37:29.174Z,6.87
2023-02-26T06:38:00.971Z,7.90
2023-02-26T06:38:32.761Z,7.63
2023-02-26T06:39:04.631Z,8.43
2023-02-26T06:39:36.408Z,8.07
2023-02-26T06:40:10.817Z,8.83
2023-02-26T06:40:43.410Z,8.50
2023-02-26T06:41:15.370Z,8.90
2023-02-26T06:41:47.170Z,9.50
2023-02-26T06:42:20.142Z,9.37
2023-02-26T06:42:52.621Z,8.77
2023-02-26T06:43:25.771Z,8.40
2023-02-26T06:43:58.059Z,7.57
2023-02-26T06:44:29.863Z,7.90
2023-02-26T06:45:01.722Z,8.20
2023-02-26T06:45:33.622Z,7.67
2023-02-26T06:46:05.761Z,8.07
2023-02-26T06:46:38.081Z,8.10
2023-02-26T06:47:10.026Z,8.27
2023-02-26T06:47:41.809Z,8.77
2023-02-26T06:48:13.658Z,9.70
2023-02-26T06:48:45.473Z,10.00
2023-02-26T06:49:17.442Z,10.07
2023-02-26T06:49:49.442Z,9.73
2023-02-26T06:50:21.543Z,8.70
2023-02-26T06:50:53.501Z,9.57
2023-02-26T06:51:25.313Z,9.43
2023-02-26T06:51:57.247Z,9.10
2023-02-26T06:52:29.249Z,9.07
2023-02-26T06:53:01.114Z,9.07
2023-02-26T06:53:33.145Z,9.60
2023-02-26T06:54:05.630Z,9.67
2023-02-26T06:54:37.455Z,8.87
2023-02-26T06:55:09.983Z,8.47
2023-02-26T06:55:46.252Z,8.13
2023-02-26T06:56:18.081Z,7.53
2023-02-26T06:56:51.066Z,7.60
2023-02-26T06:57:22.891Z,7.57
2023-02-26T06:57:55.598Z,6.80
2023-02-26T06:58:28.074Z,6.53
2023-02-26T06:59:00.021Z,6.70
2023-02-26T06:59:31.873Z,7.27
2023-02-26T07:00:06.674Z,8.00
2023-02-26T07:00:38.693Z,8.73
2023-02-26T07:01:10.653Z,7.70
2023-02-26T07:01:42.610Z,8.17
2023-02-26T07:02:19.587Z,8.53
2023-02-26T07:02:52.502Z,8.63
2023-02-26T07:03:24.415Z,8.23
2023-02-26T07:03:56.246Z,8.60
2023-02-26T07:04:28.187Z,8.90
2023-02-26T07:05:00.165Z,8.70
2023-02-26T07:05:31.962Z,8.50
2023-02-26T07:06:25.696Z,8.60
2023-02-26T07:06:55.850Z,7.40
2023-02-26T07:07:28.043Z,7.90
2023-02-26T07:07:59.822Z,8.17
2023-02-26T07:08:31.525Z,8.03
2023-02-26T07:09:03.406Z,8.07
2023-02-26T07:09:35.695Z,7.57
2023-02-26T07:10:08.445Z,7.50
2023-02-26T07:10:41.601Z,8.20
2023-02-26T07:11:15.060Z,8.73
2023-02-26T07:11:46.846Z,8.00
2023-02-26T07:12:19.044Z,7.70
2023-02-26T07:12:51.476Z,7.63
2023-02-26T07:13:23.416Z,7.47
2023-02-26T07:13:55.271Z,7.77
2023-02-26T07:14:27.225Z,9.07
2023-02-26T07:14:59.274Z,9.47
2023-02-26T07:15:31.724Z,11.27
2023-02-26T07:16:07.301Z,13.30
2023-02-26T07:16:39.188Z,9.77
2023-02-26T07:17:19.654Z,9.43
2023-02-26T07:17:51.502Z,11.17
2023-02-26T07:18:24.041Z,12.00
2023-02-26T07:18:56.143Z,12.00
2023-02-26T07:19:28.316Z,9.43
2023-02-26T07:20:06.288Z,13.30
2023-02-26T07:20:38.160Z,12.13
2023-02-26T07:21:10.068Z,11.03
2023-02-26T07:21:41.866Z,13.20
2023-02-26T07:22:15.051Z,14.37
2023-02-26T07:22:46.852Z,13.00
2023-02-26T07:23:18.619Z,10.77
2023-02-26T07:23:50.536Z,12.83
2023-02-26T07:24:23.395Z,12.73
2023-02-26T07:24:56.148Z,10.07
2023-02-26T07:25:27.882Z,9.53
2023-02-26T07:25:59.785Z,10.27
2023-02-26T07:26:31.601Z,11.00
2023-02-26T07:27:03.855Z,12.23
2023-02-26T07:27:35.695Z,11.53
2023-02-26T07:28:07.543Z,11.20
2023-02-26T07:28:39.442Z,10.73
2023-02-26T07:29:11.323Z,11.17
2023-02-26T07:29:43.595Z,11.63
2023-02-26T07:30:16.077Z,10.87
2023-02-26T07:30:48.208Z,10.23
2023-02-26T07:31:20.266Z,10.40
2023-02-26T07:31:52.318Z,10.60
2023-02-26T07:32:24.563Z,9.73
2023-02-26T07:32:56.915Z,10.57
2023-02-26T07:33:29.171Z,10.53
2023-02-26T07:34:01.050Z,10.07
2023-02-26T07:34:33.513Z,10.23
2023-02-26T07:35:06.082Z,10.97
2023-02-26T07:35:37.849Z,17.17
2023-02-26T07:36:09.803Z,14.30
2023-02-26T07:36:41.562Z,14.57
2023-02-26T07:37:13.676Z,13.50
2023-02-26T07:37:45.521Z,12.80
2023-02-26T07:38:19.446Z,12.23
2023-02-26T07:38:51.573Z,11.53
2023-02-26T07:39:23.287Z,12.30
2023-02-26T07:39:55.657Z,12.50
2023-02-26T07:40:27.556Z,11.63
2023-02-26T07:40:59.400Z,10.87
2023-02-26T07:41:31.171Z,11.93
2023-02-26T07:42:02.966Z,13.17
2023-02-26T07:42:34.741Z,13.00
2023-02-26T07:43:06.819Z,13.93
2023-02-26T07:43:38.743Z,12.43
2023-02-26T07:44:10.837Z,12.60
2023-02-26T07:44:42.766Z,12.23
2023-02-26T07:45:17.742Z,12.03
2023-02-26T07:45:53.119Z,12.40
2023-02-26T07:46:25.633Z,12.30
2023-02-26T07:46:57.646Z,11.40
2023-02-26T07:47:30.981Z,11.77
2023-02-26T07:48:06.118Z,12.17
2023-02-26T07:48:38.141Z,13.37
2023-02-26T07:49:10.120Z,13.07
2023-02-26T07:49:42.241Z,13.57
2023-02-26T07:50:14.512Z,12.43
2023-02-26T07:50:46.849Z,13.30
2023-02-26T07:51:19.508Z,12.80
2023-02-26T07:51:51.627Z,14.27